Overview Statistics Trail Chart Weather Telemetry Raw packets
 

This is the latest recevied weather packets stored in our database for station/object K4QXN-13. If no packets are shown the sender has not sent any weather packets the latest 10 day(s).

<< 2 3 4 5 6 7 8 >>
Time Temp. Humidity Pressure Rain* Wind** Luminosity Snow
1788549788 36.11° C 54% 1015.2 hPa 0 mm - - -
1788549486 35.56° C 53% 1015.5 hPa 0 mm - - -
1788549185 36.11° C 52% 1015.5 hPa 0 mm - - -
1788548882 36.11° C 50% 1015.5 hPa 0 mm - - -
1788548581 37.22° C 49% 1015.9 hPa 0 mm - - -
1788548279 37.78° C 49% 1015.9 hPa 0 mm - - -
1788547978 37.78° C 50% 1015.5 hPa 0 mm - - -
1788547676 36.67° C 50% 1015.9 hPa 0 mm - - -
1788547374 37.22° C 51% 1015.9 hPa 0 mm - - -
1788547073 35.56° C 55% 1015.9 hPa 0 mm - - -
1788546771 35.56° C 54% 1016.2 hPa 0 mm - - -
1788546470 35.56° C 53% 1016.2 hPa 0 mm - - -
1788546168 37.22° C 52% 1016.2 hPa 0 mm - - -
1788545536 35.56° C 57% 1016.2 hPa 0 mm - - -
1788545234 35.56° C 56% 1016.2 hPa 0 mm - - -
1788544933 34.44° C 58% 1016.2 hPa 0 mm - - -
1788544631 35° C 56% 1016.5 hPa 0 mm - - -
1788544329 35° C 56% 1016.5 hPa 0 mm - - -
1788544028 35.56° C 55% 1016.2 hPa 0 mm - - -
1788543726 36.11° C 55% 1016.5 hPa 0 mm - - -
1788543425 36.11° C 55% 1016.9 hPa 0 mm - - -
1788543123 36.11° C 57% 1016.5 hPa 0 mm - - -
1788542821 35.56° C 56% 1016.9 hPa 0 mm - - -
1788542520 35.56° C 56% 1016.9 hPa 0 mm - - -
1788542218 35.56° C 58% 1016.5 hPa 0 mm - - -

* Rain latest hour (hover to see other rain measurements)
** Current wind speed in m/s (hover to see current wind gust speed)